createdAt,value
2022-07-28T00:01:24.719Z,18.80
2022-07-28T00:03:53.022Z,18.90
2022-07-28T00:06:21.178Z,18.90
2022-07-28T00:08:49.343Z,18.90
2022-07-28T00:11:18.993Z,18.80
2022-07-28T00:13:47.173Z,18.80
2022-07-28T00:16:15.431Z,18.70
2022-07-28T00:18:43.737Z,18.70
2022-07-28T00:21:12.070Z,18.80
2022-07-28T00:23:40.316Z,18.80
2022-07-28T00:26:09.220Z,18.80
2022-07-28T00:28:38.815Z,18.70
2022-07-28T00:31:11.936Z,18.70
2022-07-28T00:33:41.542Z,18.70
2022-07-28T00:36:11.592Z,18.60
2022-07-28T00:38:40.921Z,18.60
2022-07-28T00:41:12.245Z,18.50
2022-07-28T00:43:42.312Z,18.60
2022-07-28T00:46:10.762Z,18.50
2022-07-28T00:48:40.017Z,18.50
2022-07-28T00:51:09.031Z,18.50
2022-07-28T00:53:37.514Z,18.40
2022-07-28T00:56:06.942Z,18.30
2022-07-28T00:58:36.447Z,18.40
2022-07-28T01:01:06.164Z,18.30
2022-07-28T01:03:35.839Z,18.20
2022-07-28T01:06:11.821Z,18.20
2022-07-28T01:08:47.496Z,18.20
2022-07-28T01:11:18.722Z,18.20
2022-07-28T01:13:56.261Z,18.10
2022-07-28T01:16:25.838Z,18.10
2022-07-28T01:18:58.488Z,18.20
2022-07-28T01:21:27.734Z,18.10
2022-07-28T01:24:03.646Z,18.00
2022-07-28T01:26:54.308Z,17.90
2022-07-28T01:29:32.037Z,17.90
2022-07-28T01:32:04.632Z,17.90
2022-07-28T01:34:34.661Z,17.90
2022-07-28T01:37:05.780Z,17.80
2022-07-28T01:39:35.590Z,17.80
2022-07-28T01:42:03.812Z,17.80
2022-07-28T01:44:32.038Z,17.90
2022-07-28T01:47:01.759Z,17.90
2022-07-28T01:49:29.978Z,17.90
2022-07-28T01:51:58.216Z,17.80
2022-07-28T01:54:28.554Z,17.80
2022-07-28T01:56:56.899Z,17.80
2022-07-28T01:59:25.091Z,17.80
2022-07-28T02:01:53.410Z,17.90
2022-07-28T02:04:23.168Z,17.90
2022-07-28T02:06:51.423Z,17.80
2022-07-28T02:09:19.628Z,17.80
2022-07-28T02:11:47.948Z,17.80
2022-07-28T02:14:17.765Z,17.80
2022-07-28T02:16:48.435Z,17.80
2022-07-28T02:19:16.657Z,17.80
2022-07-28T02:21:47.753Z,17.70
2022-07-28T02:24:16.388Z,17.80
2022-07-28T02:26:48.229Z,17.70
2022-07-28T02:29:40.509Z,17.80
2022-07-28T02:32:24.073Z,17.70
2022-07-28T02:34:57.166Z,17.60
2022-07-28T02:37:27.491Z,17.70
2022-07-28T02:40:00.045Z,17.60
2022-07-28T02:42:30.110Z,17.60
2022-07-28T02:44:59.912Z,17.60
2022-07-28T02:47:31.604Z,17.50
2022-07-28T02:49:59.932Z,17.60
2022-07-28T02:52:29.487Z,17.60
2022-07-28T02:54:58.294Z,17.40
2022-07-28T02:57:26.591Z,17.40
2022-07-28T02:59:55.189Z,17.40
2022-07-28T03:02:23.459Z,17.30
2022-07-28T03:04:59.030Z,17.40
2022-07-28T03:07:29.232Z,17.40
2022-07-28T03:09:57.955Z,17.40
2022-07-28T03:12:26.180Z,17.30
2022-07-28T03:14:54.460Z,17.40
2022-07-28T03:17:22.814Z,17.30
2022-07-28T03:19:51.071Z,17.30
2022-07-28T03:22:19.298Z,17.30
2022-07-28T03:24:52.087Z,17.30
2022-07-28T03:27:24.300Z,17.30
2022-07-28T03:29:54.291Z,17.30
2022-07-28T03:32:23.111Z,17.40
2022-07-28T03:34:52.509Z,17.30
2022-07-28T03:37:25.241Z,17.30
2022-07-28T03:39:55.466Z,17.30
2022-07-28T03:42:23.652Z,17.20
2022-07-28T03:44:51.917Z,17.20
2022-07-28T03:47:23.117Z,17.30
2022-07-28T03:49:51.446Z,17.20
2022-07-28T03:52:19.683Z,17.20
2022-07-28T03:54:47.854Z,17.10
2022-07-28T03:57:17.392Z,17.10
2022-07-28T03:59:45.613Z,17.20
2022-07-28T04:02:13.863Z,17.20
2022-07-28T04:04:42.123Z,17.20
2022-07-28T04:07:10.329Z,17.20
2022-07-28T04:09:38.466Z,17.20
2022-07-28T04:12:07.055Z,17.20
2022-07-28T04:14:36.658Z,17.20
2022-07-28T04:17:04.930Z,17.20
2022-07-28T04:19:33.191Z,17.10
2022-07-28T04:22:01.608Z,17.20
2022-07-28T04:24:29.768Z,17.20
2022-07-28T04:26:58.028Z,17.10
2022-07-28T04:29:27.364Z,17.20
2022-07-28T04:31:57.288Z,17.20
2022-07-28T04:34:25.488Z,17.20
2022-07-28T04:36:55.487Z,17.20
2022-07-28T04:39:24.970Z,17.20
2022-07-28T04:41:53.275Z,17.30
2022-07-28T04:44:21.480Z,17.30
2022-07-28T04:46:49.668Z,17.40
2022-07-28T04:49:19.209Z,17.40
2022-07-28T04:51:50.670Z,17.40
2022-07-28T04:54:23.091Z,17.50
2022-07-28T04:56:54.413Z,17.40
2022-07-28T04:59:24.158Z,17.40
2022-07-28T05:01:53.523Z,17.40
2022-07-28T05:04:23.137Z,17.40
2022-07-28T05:06:51.405Z,17.60
2022-07-28T05:09:19.583Z,17.50
2022-07-28T05:11:47.854Z,17.50
2022-07-28T05:14:16.273Z,17.60
2022-07-28T05:16:44.749Z,17.50
2022-07-28T05:19:14.430Z,17.40
2022-07-28T05:21:44.056Z,17.40
2022-07-28T05:24:14.198Z,17.40
2022-07-28T05:26:42.760Z,17.50
2022-07-28T05:29:10.941Z,17.40
2022-07-28T05:31:39.404Z,17.40
2022-07-28T05:34:07.644Z,17.50
2022-07-28T05:36:36.784Z,17.60
2022-07-28T05:39:06.363Z,17.70
2022-07-28T05:41:35.808Z,17.70
2022-07-28T05:44:04.159Z,17.80
2022-07-28T05:46:32.545Z,17.90
2022-07-28T05:49:00.805Z,17.90
2022-07-28T05:51:29.165Z,18.10
2022-07-28T05:53:57.288Z,18.10
2022-07-28T05:56:26.873Z,18.20
2022-07-28T05:58:55.199Z,18.20
2022-07-28T06:01:23.465Z,18.20
2022-07-28T06:04:10.019Z,18.30
2022-07-28T06:06:41.547Z,18.30
2022-07-28T06:09:09.761Z,18.30
2022-07-28T06:11:39.485Z,18.30
2022-07-28T06:14:07.707Z,18.40
2022-07-28T06:16:35.925Z,18.40
2022-07-28T06:19:04.112Z,18.40
2022-07-28T06:21:33.133Z,18.50
2022-07-28T06:24:01.590Z,18.50
2022-07-28T06:26:29.794Z,18.60
2022-07-28T06:28:59.431Z,18.50
2022-07-28T06:31:27.689Z,18.60
2022-07-28T06:33:56.025Z,18.70
2022-07-28T06:36:24.252Z,18.80
2022-07-28T06:38:52.436Z,18.80
2022-07-28T06:41:20.662Z,18.80
2022-07-28T06:43:48.887Z,18.90
2022-07-28T06:46:19.813Z,18.90
2022-07-28T06:48:48.278Z,19.00
2022-07-28T06:51:19.351Z,19.10
2022-07-28T06:53:48.687Z,19.00
2022-07-28T06:56:17.269Z,19.10
2022-07-28T06:58:46.885Z,19.10
2022-07-28T07:01:15.753Z,19.00
2022-07-28T07:03:45.490Z,19.20
2022-07-28T07:06:13.898Z,19.20
2022-07-28T07:08:42.027Z,19.30
2022-07-28T07:11:10.186Z,19.30
2022-07-28T07:13:38.364Z,19.30
2022-07-28T07:16:06.775Z,19.50
2022-07-28T07:18:34.992Z,19.50
2022-07-28T07:21:04.723Z,19.50
2022-07-28T07:23:32.872Z,19.60
2022-07-28T07:26:01.123Z,19.60
2022-07-28T07:28:29.289Z,19.60
2022-07-28T07:30:57.588Z,19.70
2022-07-28T07:33:26.047Z,19.70
2022-07-28T07:35:54.239Z,19.70
2022-07-28T07:38:28.816Z,19.80
2022-07-28T07:40:57.340Z,19.90
2022-07-28T07:43:25.522Z,19.90
2022-07-28T07:45:54.799Z,20.00
2022-07-28T07:48:22.946Z,20.00
2022-07-28T07:50:53.975Z,20.00
2022-07-28T07:53:24.377Z,20.00
2022-07-28T07:55:52.668Z,20.00
2022-07-28T07:58:20.803Z,20.00
2022-07-28T08:00:48.996Z,20.00
2022-07-28T08:03:17.473Z,20.20
2022-07-28T08:05:51.744Z,20.20
2022-07-28T08:08:19.882Z,20.20
2022-07-28T08:10:51.250Z,20.30
2022-07-28T08:13:20.466Z,20.40
2022-07-28T08:15:48.668Z,20.40
2022-07-28T08:18:17.006Z,20.40
2022-07-28T08:20:45.179Z,20.60
2022-07-28T08:23:13.350Z,20.50
2022-07-28T08:25:41.494Z,20.60
2022-07-28T08:28:11.025Z,20.60
2022-07-28T08:30:40.364Z,20.60
2022-07-28T08:33:08.599Z,20.70
2022-07-28T08:35:36.824Z,20.80
2022-07-28T08:38:05.478Z,20.90
2022-07-28T08:40:33.644Z,21.00
2022-07-28T08:43:04.781Z,21.10
2022-07-28T08:45:37.016Z,21.20
2022-07-28T08:48:08.122Z,21.30
2022-07-28T08:50:37.278Z,21.40
2022-07-28T08:53:05.442Z,21.50
2022-07-28T08:55:33.792Z,21.50
2022-07-28T08:58:01.964Z,21.60
2022-07-28T09:00:30.281Z,21.70
2022-07-28T09:02:59.902Z,21.60
2022-07-28T09:05:28.261Z,21.70
2022-07-28T09:07:56.461Z,21.80
2022-07-28T09:10:24.801Z,21.80
2022-07-28T09:12:53.013Z,21.80
2022-07-28T09:15:21.323Z,21.90
2022-07-28T09:17:49.465Z,22.00
2022-07-28T09:20:19.046Z,22.00
2022-07-28T09:23:00.041Z,22.00
2022-07-28T09:25:28.240Z,22.10
2022-07-28T09:27:56.397Z,22.10
2022-07-28T09:30:31.393Z,22.20
2022-07-28T09:33:41.800Z,22.30
2022-07-28T09:36:05.160Z,22.30
2022-07-28T09:38:42.113Z,22.40
2022-07-28T09:41:10.458Z,22.50
2022-07-28T09:43:39.378Z,22.50
2022-07-28T09:46:09.303Z,22.60
2022-07-28T09:48:37.930Z,22.70
2022-07-28T09:51:14.790Z,22.90
2022-07-28T09:53:43.120Z,23.00
2022-07-28T09:56:11.821Z,23.00
2022-07-28T09:58:40.615Z,23.10
2022-07-28T10:01:11.493Z,23.10
2022-07-28T10:03:40.294Z,23.20
2022-07-28T10:06:09.642Z,23.40
2022-07-28T10:08:43.733Z,23.40
2022-07-28T10:11:12.664Z,23.40
2022-07-28T10:13:57.747Z,23.50
2022-07-28T10:16:26.787Z,23.60
2022-07-28T10:18:55.282Z,23.50
2022-07-28T10:21:25.278Z,23.60
2022-07-28T10:23:55.607Z,23.70
2022-07-28T10:26:27.303Z,23.80
2022-07-28T10:28:55.623Z,23.90
2022-07-28T10:31:36.051Z,24.10
2022-07-28T10:34:04.579Z,24.20
2022-07-28T10:36:32.882Z,24.30
2022-07-28T10:39:05.289Z,24.50
2022-07-28T10:41:38.894Z,24.60
2022-07-28T10:44:07.280Z,24.90
2022-07-28T10:46:35.628Z,24.90
2022-07-28T10:49:05.229Z,24.90
2022-07-28T10:51:53.880Z,24.80
2022-07-28T10:54:29.921Z,24.90
2022-07-28T10:56:58.993Z,24.90
2022-07-28T10:59:58.128Z,24.90
2022-07-28T11:02:46.665Z,25.10
2022-07-28T11:05:34.627Z,25.40
2022-07-28T11:08:04.407Z,25.50
2022-07-28T11:10:47.951Z,25.70
2022-07-28T11:13:30.085Z,25.50
2022-07-28T11:16:19.727Z,25.60
2022-07-28T11:19:40.151Z,25.70
2022-07-28T11:22:25.109Z,26.00
2022-07-28T11:25:20.775Z,26.20
2022-07-28T11:28:12.555Z,26.30
2022-07-28T11:30:54.352Z,26.40
2022-07-28T11:33:25.064Z,26.40
2022-07-28T11:36:00.015Z,26.40
2022-07-28T11:38:28.681Z,26.60
2022-07-28T11:40:57.780Z,25.90
2022-07-28T11:43:39.534Z,25.90
2022-07-28T11:46:23.616Z,26.30
2022-07-28T11:49:19.692Z,26.40
2022-07-28T11:52:27.766Z,26.80
2022-07-28T11:54:57.237Z,27.00
2022-07-28T11:57:28.692Z,26.70
2022-07-28T12:00:02.446Z,26.80
2022-07-28T12:02:31.856Z,26.90
2022-07-28T12:05:09.457Z,27.10
2022-07-28T12:07:45.461Z,27.30
2022-07-28T12:13:27.146Z,27.60
2022-07-28T12:15:56.861Z,27.60
2022-07-28T12:18:25.326Z,27.20
2022-07-28T12:20:54.948Z,26.70
2022-07-28T12:23:45.664Z,26.60
2022-07-28T12:26:31.208Z,26.40
2022-07-28T12:29:00.262Z,26.40
2022-07-28T12:31:33.281Z,26.80
2022-07-28T12:34:01.817Z,27.30
2022-07-28T12:36:30.287Z,27.50
2022-07-28T12:38:58.457Z,27.80
2022-07-28T12:41:31.251Z,27.70
2022-07-28T12:43:59.398Z,28.00
2022-07-28T12:46:28.435Z,28.00
2022-07-28T12:48:58.799Z,27.50
2022-07-28T12:51:34.404Z,27.70
2022-07-28T12:54:02.675Z,28.00
2022-07-28T12:56:31.023Z,28.10
2022-07-28T12:59:06.744Z,27.80
2022-07-28T13:01:51.412Z,27.50
2022-07-28T13:04:43.917Z,27.30
2022-07-28T13:07:13.246Z,27.40
2022-07-28T13:09:49.047Z,27.10
2022-07-28T13:12:23.900Z,27.10
2022-07-28T13:14:52.962Z,26.90
2022-07-28T13:17:21.402Z,26.70
2022-07-28T13:19:51.188Z,26.60
2022-07-28T13:22:28.860Z,26.60
2022-07-28T13:24:58.093Z,26.60
2022-07-28T13:27:26.560Z,26.60
2022-07-28T13:29:54.883Z,26.40
2022-07-28T13:32:23.478Z,26.20
2022-07-28T13:34:53.106Z,26.00
2022-07-28T13:37:21.324Z,26.00
2022-07-28T13:39:54.234Z,26.10
2022-07-28T13:42:23.781Z,26.00
2022-07-28T13:44:52.341Z,26.30
2022-07-28T13:47:20.987Z,26.60
2022-07-28T13:49:49.439Z,27.00
2022-07-28T13:52:29.347Z,26.70
2022-07-28T13:55:04.146Z,27.20
2022-07-28T13:57:35.057Z,27.30
2022-07-28T14:00:07.597Z,27.20
2022-07-28T14:02:36.646Z,27.40
2022-07-28T14:05:05.708Z,27.50
2022-07-28T14:07:35.448Z,27.30
2022-07-28T14:10:06.882Z,27.20
2022-07-28T14:12:37.616Z,27.30
2022-07-28T14:15:09.860Z,27.40
2022-07-28T14:17:43.920Z,27.30
2022-07-28T14:20:14.769Z,27.30
2022-07-28T14:22:44.527Z,27.10
2022-07-28T14:25:21.063Z,27.00
2022-07-28T14:27:50.734Z,26.80
2022-07-28T14:30:19.357Z,26.90
2022-07-28T14:32:47.640Z,26.90
2022-07-28T14:35:16.007Z,26.80
2022-07-28T14:40:33.928Z,26.70
2022-07-28T14:43:07.620Z,26.60
2022-07-28T14:45:51.402Z,26.60
2022-07-28T14:48:24.287Z,26.70
2022-07-28T14:50:55.686Z,26.70
2022-07-28T14:53:28.195Z,26.80
2022-07-28T14:55:56.988Z,26.80
2022-07-28T14:58:25.922Z,26.80
2022-07-28T15:00:54.674Z,26.80
2022-07-28T15:03:23.148Z,26.80
2022-07-28T15:05:51.620Z,26.70
2022-07-28T15:08:20.038Z,26.60
2022-07-28T15:10:55.521Z,26.70
2022-07-28T15:13:23.755Z,26.70
2022-07-28T15:15:52.163Z,26.50
2022-07-28T15:18:20.437Z,26.50
2022-07-28T15:20:49.946Z,26.40
2022-07-28T15:23:18.201Z,26.30
2022-07-28T15:25:47.597Z,26.20
2022-07-28T15:28:17.542Z,26.10
2022-07-28T15:30:51.914Z,25.80
2022-07-28T15:33:21.385Z,25.80
2022-07-28T15:35:57.927Z,25.70
2022-07-28T15:38:28.605Z,25.70
2022-07-28T15:40:58.743Z,25.80
2022-07-28T15:43:28.830Z,25.80
2022-07-28T15:45:57.607Z,25.90
2022-07-28T15:48:25.928Z,25.90
2022-07-28T15:50:54.257Z,25.90
2022-07-28T15:53:22.568Z,26.00
2022-07-28T15:55:51.488Z,26.00
2022-07-28T15:58:20.489Z,26.10
2022-07-28T16:00:50.132Z,26.10
2022-07-28T16:03:18.439Z,26.10
2022-07-28T16:05:49.674Z,26.00
2022-07-28T16:08:18.328Z,26.10
2022-07-28T16:10:51.591Z,26.00
2022-07-28T16:13:35.640Z,26.10
2022-07-28T16:16:07.471Z,26.10
2022-07-28T16:18:36.586Z,26.10
2022-07-28T16:21:05.000Z,26.00
2022-07-28T16:23:33.192Z,26.00
2022-07-28T16:26:01.420Z,26.00
2022-07-28T16:28:29.657Z,25.90
2022-07-28T16:30:58.012Z,25.90
2022-07-28T16:33:27.615Z,25.90
2022-07-28T16:36:01.607Z,25.70
2022-07-28T16:38:29.862Z,25.60
2022-07-28T16:40:58.334Z,25.50
2022-07-28T16:43:26.716Z,25.40
2022-07-28T16:45:55.119Z,25.30
2022-07-28T16:48:23.349Z,25.40
2022-07-28T16:50:54.009Z,25.30
2022-07-28T16:53:22.239Z,25.30
2022-07-28T16:55:50.601Z,25.30
2022-07-28T16:58:20.121Z,25.30
2022-07-28T17:00:48.425Z,25.20
2022-07-28T17:03:17.125Z,25.10
2022-07-28T17:05:45.663Z,25.10
2022-07-28T17:08:15.471Z,25.10
2022-07-28T17:10:45.203Z,25.00
2022-07-28T17:13:13.441Z,24.90
2022-07-28T17:15:41.768Z,24.90
2022-07-28T17:18:12.297Z,24.80
2022-07-28T17:20:42.070Z,24.80
2022-07-28T17:23:10.419Z,24.70
2022-07-28T17:25:59.527Z,24.70
2022-07-28T17:28:28.583Z,24.60
2022-07-28T17:33:38.934Z,24.50
2022-07-28T17:36:07.597Z,24.60
2022-07-28T17:38:35.771Z,24.50
2022-07-28T17:41:07.653Z,24.50
2022-07-28T17:43:36.695Z,24.40
2022-07-28T17:46:08.283Z,24.40
2022-07-28T17:48:39.156Z,24.40
2022-07-28T17:51:07.426Z,24.30
2022-07-28T17:53:39.527Z,24.30
2022-07-28T17:56:09.398Z,24.20
2022-07-28T17:58:38.779Z,24.20
2022-07-28T18:01:12.142Z,24.20
2022-07-28T18:03:56.644Z,24.00
2022-07-28T18:06:29.504Z,24.00
2022-07-28T18:08:58.842Z,23.90
2022-07-28T18:11:55.324Z,23.80
2022-07-28T18:14:24.952Z,23.80
2022-07-28T18:16:53.155Z,23.80
2022-07-28T18:19:21.341Z,23.70
2022-07-28T18:21:49.880Z,23.60
2022-07-28T18:24:18.590Z,23.60
2022-07-28T18:26:48.606Z,23.40
2022-07-28T18:29:17.820Z,23.40
2022-07-28T18:31:47.116Z,23.30
2022-07-28T18:34:16.149Z,23.20
2022-07-28T18:36:44.631Z,23.10
2022-07-28T18:39:12.836Z,22.90
2022-07-28T18:41:46.209Z,22.80
2022-07-28T18:44:17.503Z,22.80
2022-07-28T18:46:46.014Z,22.80
2022-07-28T18:49:14.427Z,22.60
2022-07-28T18:51:44.925Z,22.60
2022-07-28T18:54:16.483Z,22.40
2022-07-28T18:56:48.418Z,22.40
2022-07-28T18:59:18.039Z,22.40
2022-07-28T19:01:46.407Z,22.30
2022-07-28T19:04:14.843Z,22.20
2022-07-28T19:06:43.381Z,22.10
2022-07-28T19:09:11.556Z,21.90
2022-07-28T19:11:45.268Z,21.90
2022-07-28T19:14:14.723Z,21.90
2022-07-28T19:16:44.589Z,21.80
2022-07-28T19:19:13.118Z,21.70
2022-07-28T19:21:43.105Z,21.60
2022-07-28T19:24:12.381Z,21.60
2022-07-28T19:26:41.359Z,21.60
2022-07-28T19:29:09.595Z,21.50
2022-07-28T19:31:37.881Z,21.60
2022-07-28T19:34:07.586Z,21.50
2022-07-28T19:36:37.708Z,21.50
2022-07-28T19:39:05.991Z,21.50
2022-07-28T19:41:34.493Z,21.50
2022-07-28T19:44:02.773Z,21.50
2022-07-28T19:46:31.253Z,21.40
2022-07-28T19:48:59.671Z,21.40
2022-07-28T19:51:29.389Z,21.40
2022-07-28T19:53:59.457Z,21.40
2022-07-28T19:56:31.586Z,21.30
2022-07-28T19:59:00.046Z,21.30
2022-07-28T20:01:28.671Z,21.20
2022-07-28T20:04:01.282Z,21.20
2022-07-28T20:06:32.332Z,21.20
2022-07-28T20:09:00.607Z,21.10
2022-07-28T20:11:28.836Z,21.00
2022-07-28T20:13:56.994Z,21.00
2022-07-28T20:16:25.662Z,20.90
2022-07-28T20:18:53.924Z,20.90
2022-07-28T20:21:24.127Z,20.80
2022-07-28T20:23:54.193Z,20.80
2022-07-28T20:26:24.026Z,20.80
2022-07-28T20:28:52.323Z,20.80
2022-07-28T20:31:21.098Z,20.70
2022-07-28T20:33:49.387Z,20.70
2022-07-28T20:36:17.723Z,20.70
2022-07-28T20:38:46.358Z,20.70
2022-07-28T20:41:16.480Z,20.60
2022-07-28T20:43:44.809Z,20.50
2022-07-28T20:46:13.171Z,20.60
2022-07-28T20:48:41.423Z,20.50
2022-07-28T20:51:09.690Z,20.50
2022-07-28T20:53:38.432Z,20.50
2022-07-28T20:56:06.928Z,20.40
2022-07-28T20:58:36.571Z,20.40
2022-07-28T21:01:04.841Z,20.30
2022-07-28T21:03:33.305Z,20.30
2022-07-28T21:06:01.527Z,20.30
2022-07-28T21:08:31.096Z,20.30
2022-07-28T21:10:59.320Z,20.30
2022-07-28T21:13:27.465Z,20.20
2022-07-28T21:15:57.075Z,20.20
2022-07-28T21:18:25.247Z,20.20
2022-07-28T21:20:53.509Z,20.10
2022-07-28T21:23:21.769Z,20.10
2022-07-28T21:25:51.619Z,20.10
2022-07-28T21:28:37.093Z,20.10
2022-07-28T21:31:07.800Z,20.10
2022-07-28T21:33:36.030Z,20.10
2022-07-28T21:36:04.755Z,20.00
2022-07-28T21:38:32.945Z,19.90
2022-07-28T21:41:01.179Z,19.90
2022-07-28T21:43:29.572Z,19.80
2022-07-28T21:45:57.886Z,19.80
2022-07-28T21:48:27.525Z,19.70
2022-07-28T21:50:56.053Z,19.60
2022-07-28T21:53:24.261Z,19.60
2022-07-28T21:55:53.097Z,19.60
2022-07-28T21:58:21.301Z,19.50
2022-07-28T22:00:49.584Z,19.50
2022-07-28T22:03:17.835Z,19.50
2022-07-28T22:05:47.460Z,19.40
2022-07-28T22:08:15.629Z,19.40
2022-07-28T22:10:43.907Z,19.30
2022-07-28T22:13:12.116Z,19.40
2022-07-28T22:15:40.486Z,19.30
2022-07-28T22:18:11.056Z,19.30
2022-07-28T22:20:43.089Z,19.20
2022-07-28T22:23:17.992Z,19.20
2022-07-28T22:25:57.565Z,19.10
2022-07-28T22:28:29.890Z,19.20
2022-07-28T22:30:59.045Z,19.10
2022-07-28T22:33:38.258Z,19.10
2022-07-28T22:36:07.149Z,19.10
2022-07-28T22:38:36.703Z,19.00
2022-07-28T22:41:05.043Z,19.00
2022-07-28T22:43:33.530Z,19.00
2022-07-28T22:46:01.883Z,19.00
2022-07-28T22:48:30.008Z,18.80
2022-07-28T22:50:58.308Z,18.80
2022-07-28T22:53:26.461Z,18.70
2022-07-28T22:58:42.082Z,18.50
2022-07-28T23:01:10.465Z,18.50
2022-07-28T23:03:38.987Z,18.50
2022-07-28T23:06:07.418Z,18.50
2022-07-28T23:08:35.735Z,18.40
2022-07-28T23:11:06.168Z,18.40
2022-07-28T23:13:34.549Z,18.50
2022-07-28T23:16:02.973Z,18.50
2022-07-28T23:18:31.515Z,18.30
2022-07-28T23:20:59.873Z,18.30
2022-07-28T23:23:28.145Z,18.30
2022-07-28T23:25:56.525Z,18.20
2022-07-28T23:28:26.224Z,18.20
2022-07-28T23:30:54.624Z,18.10
2022-07-28T23:33:56.665Z,18.10
2022-07-28T23:36:25.983Z,18.10
2022-07-28T23:38:55.485Z,18.10
2022-07-28T23:41:23.869Z,18.10
2022-07-28T23:43:53.602Z,18.10
2022-07-28T23:46:22.333Z,18.20
2022-07-28T23:48:50.896Z,18.10
2022-07-28T23:51:19.331Z,18.10
2022-07-28T23:53:48.570Z,18.00
2022-07-28T23:56:19.154Z,18.00
2022-07-28T23:58:47.484Z,18.00
